Terminal Aerodrome Forecast
Issued by NWS

Home | Current Version | Previous Version | Text Only | Print | Product List | Glossary On
Versions: 1 2 3 4 5 6 7 8 9 10 11 12 13 14 15 16 17 18 19 20
000
FTUS42 TJSJ 141100
TAFJBQ
TAF
TJBQ 141121Z 1412/1512 10004KT P6SM FEW060
     FM141400 08010KT P6SM SCT022
     FM141800 06014KT P6SM VCSH SCT025 BKN040
     FM142300 09008KT P6SM SCT025 SCT070=

USA.gov is the U.S. government's official web portal to all federal, state and local government web resources and services.